createdAt,value
2023-05-11T00:00:49.674Z,2.45
2023-05-11T00:03:16.972Z,2.63
2023-05-11T00:05:48.716Z,2.40
2023-05-11T00:08:17.276Z,2.10
2023-05-11T00:10:48.684Z,2.53
2023-05-11T00:13:15.946Z,2.40
2023-05-11T00:15:43.081Z,2.15
2023-05-11T00:18:10.511Z,2.58
2023-05-11T00:20:37.517Z,2.50
2023-05-11T00:23:04.718Z,2.17
2023-05-11T00:25:31.743Z,2.10
2023-05-11T00:27:58.754Z,2.80
2023-05-11T00:30:25.906Z,2.45
2023-05-11T00:32:53.259Z,2.53
2023-05-11T00:35:20.551Z,2.10
2023-05-11T00:37:47.883Z,2.50
2023-05-11T00:40:15.118Z,2.63
2023-05-11T00:42:42.234Z,2.80
2023-05-11T00:45:09.754Z,2.35
2023-05-11T00:47:37.672Z,2.67
2023-05-11T00:50:05.721Z,2.72
2023-05-11T00:52:33.060Z,2.55
2023-05-11T00:55:00.169Z,2.50
2023-05-11T00:57:27.623Z,2.50
2023-05-11T00:59:54.749Z,2.40
2023-05-11T01:02:21.846Z,3.05
2023-05-11T01:04:49.030Z,2.85
2023-05-11T01:07:57.711Z,2.55
2023-05-11T01:10:38.885Z,2.17
2023-05-11T01:13:26.094Z,2.90
2023-05-11T01:15:56.477Z,2.38
2023-05-11T01:18:27.437Z,2.35
2023-05-11T01:21:00.785Z,2.75
2023-05-11T01:24:13.299Z,2.83
2023-05-11T01:27:20.123Z,2.03
2023-05-11T01:30:13.058Z,2.78
2023-05-11T01:32:42.366Z,2.75
2023-05-11T01:35:18.814Z,2.65
2023-05-11T01:37:51.308Z,2.55
2023-05-11T01:40:25.930Z,2.60
2023-05-11T01:43:03.947Z,2.55
2023-05-11T01:45:37.955Z,2.58
2023-05-11T01:48:12.004Z,2.75
2023-05-11T01:50:39.773Z,2.72
2023-05-11T01:53:07.423Z,2.85
2023-05-11T01:55:36.254Z,2.58
2023-05-11T01:58:06.511Z,2.60
2023-05-11T02:00:34.344Z,3.40
2023-05-11T02:03:03.678Z,3.05
2023-05-11T02:05:33.287Z,3.03
2023-05-11T02:08:04.430Z,3.55
2023-05-11T02:10:33.665Z,3.10
2023-05-11T02:13:03.668Z,3.30
2023-05-11T02:15:31.494Z,3.03
2023-05-11T02:17:59.772Z,3.38
2023-05-11T02:20:27.388Z,3.13
2023-05-11T02:22:56.547Z,3.20
2023-05-11T02:25:25.317Z,3.25
2023-05-11T02:27:52.498Z,3.42
2023-05-11T02:30:19.891Z,3.45
2023-05-11T02:32:54.813Z,3.42
2023-05-11T02:35:32.854Z,3.30
2023-05-11T02:38:03.156Z,3.00
2023-05-11T02:40:40.660Z,3.38
2023-05-11T02:43:15.571Z,3.90
2023-05-11T02:45:45.564Z,3.70
2023-05-11T02:48:26.651Z,2.92
2023-05-11T02:50:57.131Z,3.10
2023-05-11T02:53:28.550Z,3.33
2023-05-11T02:55:56.292Z,3.33
2023-05-11T02:58:24.006Z,3.50
2023-05-11T03:00:51.505Z,3.30
2023-05-11T03:03:18.910Z,3.40
2023-05-11T03:05:46.308Z,2.45
2023-05-11T03:08:13.427Z,3.20
2023-05-11T03:10:41.885Z,3.58
2023-05-11T03:13:10.084Z,3.10
2023-05-11T03:15:38.920Z,3.38
2023-05-11T03:18:08.125Z,3.15
2023-05-11T03:20:39.164Z,3.70
2023-05-11T03:23:07.457Z,3.40
2023-05-11T03:25:34.760Z,3.20
2023-05-11T03:28:04.218Z,3.17
2023-05-11T03:30:32.959Z,3.72
2023-05-11T03:33:00.250Z,3.28
2023-05-11T03:35:29.333Z,3.38
2023-05-11T03:37:58.305Z,3.13
2023-05-11T03:40:27.915Z,3.20
2023-05-11T03:42:56.595Z,3.58
2023-05-11T03:45:26.115Z,3.35
2023-05-11T03:47:55.496Z,2.92
2023-05-11T03:50:23.314Z,3.13
2023-05-11T03:52:50.857Z,3.05
2023-05-11T03:55:17.986Z,3.60
2023-05-11T03:57:45.560Z,3.75
2023-05-11T04:00:13.187Z,4.28
2023-05-11T04:02:41.233Z,3.63
2023-05-11T04:05:12.701Z,4.10
2023-05-11T04:07:40.313Z,4.00
2023-05-11T04:10:08.371Z,3.85
2023-05-11T04:12:35.425Z,4.05
2023-05-11T04:15:02.545Z,3.45
2023-05-11T04:17:29.609Z,3.72
2023-05-11T04:19:56.649Z,3.63
2023-05-11T04:22:23.666Z,3.60
2023-05-11T04:24:50.694Z,3.55
2023-05-11T04:27:17.680Z,3.83
2023-05-11T04:29:45.073Z,4.65
2023-05-11T04:32:12.160Z,3.58
2023-05-11T04:34:39.990Z,3.40
2023-05-11T04:37:07.568Z,3.78
2023-05-11T04:39:35.078Z,3.83
2023-05-11T04:42:02.262Z,3.80
2023-05-11T04:44:29.285Z,3.83
2023-05-11T04:46:57.112Z,3.80
2023-05-11T04:49:24.310Z,3.80
2023-05-11T04:51:51.380Z,3.67
2023-05-11T04:54:18.366Z,3.42
2023-05-11T04:56:45.353Z,3.75
2023-05-11T04:59:12.473Z,4.05
2023-05-11T05:01:39.809Z,4.22
2023-05-11T05:04:07.043Z,3.70
2023-05-11T05:06:34.401Z,3.92
2023-05-11T05:09:01.513Z,4.25
2023-05-11T05:11:28.507Z,4.20
2023-05-11T05:13:55.736Z,4.20
2023-05-11T05:16:22.761Z,4.32
2023-05-11T05:18:49.837Z,3.95
2023-05-11T05:21:16.883Z,4.00
2023-05-11T05:23:43.969Z,3.65
2023-05-11T05:26:11.731Z,4.07
2023-05-11T05:28:38.920Z,3.85
2023-05-11T05:31:06.377Z,3.47
2023-05-11T05:33:33.442Z,3.33
2023-05-11T05:36:00.647Z,3.53
2023-05-11T05:38:27.827Z,3.60
2023-05-11T05:40:54.901Z,3.83
2023-05-11T05:43:21.957Z,3.78
2023-05-11T05:45:49.052Z,3.75
2023-05-11T05:48:16.072Z,3.60
2023-05-11T05:50:43.204Z,3.97
2023-05-11T05:53:10.294Z,3.85
2023-05-11T05:55:37.339Z,3.45
2023-05-11T05:58:04.449Z,3.55
2023-05-11T06:00:31.579Z,3.78
2023-05-11T06:02:58.759Z,4.07
2023-05-11T06:05:25.982Z,4.03
2023-05-11T06:08:05.946Z,3.50
2023-05-11T06:10:36.666Z,3.63
2023-05-11T06:13:03.714Z,3.67
2023-05-11T06:15:30.885Z,3.30
2023-05-11T06:17:58.005Z,3.72
2023-05-11T06:20:25.265Z,3.25
2023-05-11T06:22:52.313Z,3.35
2023-05-11T06:25:20.004Z,3.30
2023-05-11T06:27:47.118Z,3.30
2023-05-11T06:30:14.317Z,3.78
2023-05-11T06:32:41.664Z,3.65
2023-05-11T06:35:09.292Z,2.97
2023-05-11T06:37:36.611Z,3.30
2023-05-11T06:40:03.974Z,3.42
2023-05-11T06:42:31.525Z,3.03
2023-05-11T06:44:58.609Z,3.38
2023-05-11T06:47:25.784Z,3.50
2023-05-11T06:49:53.042Z,3.55
2023-05-11T06:52:20.065Z,3.50
2023-05-11T06:54:47.176Z,3.13
2023-05-11T06:57:14.685Z,3.63
2023-05-11T06:59:42.287Z,3.40
2023-05-11T07:02:09.535Z,3.47
2023-05-11T07:04:37.296Z,3.50
2023-05-11T07:07:04.836Z,3.70
2023-05-11T07:09:31.968Z,3.40
2023-05-11T07:11:59.047Z,2.92
2023-05-11T07:14:26.128Z,3.40
2023-05-11T07:16:53.278Z,3.10
2023-05-11T07:19:20.380Z,4.13
2023-05-11T07:21:47.465Z,3.45
2023-05-11T07:24:14.606Z,4.93
2023-05-11T07:26:41.650Z,3.53
2023-05-11T07:29:08.668Z,2.95
2023-05-11T07:31:36.467Z,3.42
2023-05-11T07:34:04.756Z,3.63
2023-05-11T07:36:32.174Z,3.50
2023-05-11T07:39:01.251Z,4.00
2023-05-11T07:41:29.228Z,3.33
2023-05-11T07:43:56.238Z,3.78
2023-05-11T07:46:23.412Z,3.20
2023-05-11T07:48:57.379Z,3.33
2023-05-11T07:51:30.924Z,3.22
2023-05-11T07:53:58.002Z,3.35
2023-05-11T07:56:25.144Z,3.80
2023-05-11T07:58:52.167Z,3.08
2023-05-11T08:01:19.236Z,2.95
2023-05-11T08:03:46.268Z,3.20
2023-05-11T08:06:13.318Z,4.03
2023-05-11T08:08:40.351Z,3.83
2023-05-11T08:11:07.501Z,3.72
2023-05-11T08:13:34.958Z,3.70
2023-05-11T08:16:02.013Z,3.55
2023-05-11T08:18:29.669Z,3.92
2023-05-11T08:20:57.055Z,3.83
2023-05-11T08:23:24.121Z,3.53
2023-05-11T08:25:54.370Z,4.32
2023-05-11T08:28:22.206Z,3.53
2023-05-11T08:30:58.799Z,3.60
2023-05-11T08:33:37.402Z,4.28
2023-05-11T08:36:07.034Z,3.75
2023-05-11T08:38:35.767Z,3.83
2023-05-11T08:41:03.363Z,3.45
2023-05-11T08:43:34.400Z,3.40
2023-05-11T08:46:05.117Z,3.55
2023-05-11T08:48:32.494Z,3.35
2023-05-11T08:51:00.326Z,3.92
2023-05-11T08:53:27.418Z,3.42
2023-05-11T08:55:58.978Z,3.40
2023-05-11T08:58:27.987Z,3.15
2023-05-11T09:00:55.765Z,3.40
2023-05-11T09:03:23.470Z,2.92
2023-05-11T09:05:50.927Z,3.08
2023-05-11T09:08:19.553Z,3.08
2023-05-11T09:10:46.899Z,2.60
2023-05-11T09:13:14.111Z,2.80
2023-05-11T09:15:41.379Z,2.55
2023-05-11T09:18:08.706Z,2.67
2023-05-11T09:20:35.861Z,2.42
2023-05-11T09:23:03.165Z,2.47
2023-05-11T09:25:35.052Z,2.65
2023-05-11T09:28:02.215Z,2.83
2023-05-11T09:30:29.263Z,2.40
2023-05-11T09:33:00.013Z,2.35
2023-05-11T09:35:33.358Z,2.30
2023-05-11T09:38:13.382Z,2.05
2023-05-11T09:40:52.221Z,2.30
2023-05-11T09:43:30.914Z,2.40
2023-05-11T09:46:07.035Z,2.53
2023-05-11T09:48:35.311Z,1.90
2023-05-11T09:51:07.964Z,2.08
2023-05-11T09:53:45.909Z,2.47
2023-05-11T09:56:14.027Z,2.13
2023-05-11T09:58:49.164Z,2.28
2023-05-11T10:01:18.932Z,2.72
2023-05-11T10:04:00.215Z,2.47
2023-05-11T10:06:50.259Z,2.67
2023-05-11T10:09:23.355Z,2.28
2023-05-11T10:11:51.330Z,2.40
2023-05-11T10:14:19.889Z,2.08
2023-05-11T10:16:48.080Z,2.58
2023-05-11T10:19:15.993Z,2.45
2023-05-11T10:21:43.662Z,2.33
2023-05-11T10:24:11.382Z,2.42
2023-05-11T10:26:38.986Z,2.53
2023-05-11T10:29:06.225Z,2.20
2023-05-11T10:31:33.600Z,2.10
2023-05-11T10:34:02.467Z,2.35
2023-05-11T10:36:30.146Z,2.88
2023-05-11T10:38:59.980Z,2.70
2023-05-11T10:41:48.180Z,2.63
2023-05-11T10:44:40.323Z,2.25
2023-05-11T10:47:55.241Z,2.03
2023-05-11T10:50:48.365Z,2.10
2023-05-11T10:53:39.409Z,2.20
2023-05-11T10:56:42.341Z,1.85
2023-05-11T10:59:46.572Z,2.05
2023-05-11T11:02:13.977Z,1.70
2023-05-11T11:04:50.457Z,2.08
2023-05-11T11:07:19.661Z,1.63
2023-05-11T11:10:05.166Z,2.22
2023-05-11T11:12:35.123Z,2.25
2023-05-11T11:15:07.245Z,1.95
2023-05-11T11:17:36.205Z,1.92
2023-05-11T11:20:08.652Z,2.10
2023-05-11T11:22:35.946Z,1.85
2023-05-11T11:25:08.089Z,2.05
2023-05-11T11:27:41.302Z,2.08
2023-05-11T11:30:27.003Z,1.80
2023-05-11T11:33:08.586Z,1.60
2023-05-11T11:35:42.033Z,2.00
2023-05-11T11:38:15.754Z,2.30
2023-05-11T11:40:53.035Z,1.75
2023-05-11T11:43:29.160Z,2.13
2023-05-11T11:46:00.621Z,1.70
2023-05-11T11:48:36.066Z,2.00
2023-05-11T11:51:09.071Z,1.80
2023-05-11T11:53:41.501Z,1.80
2023-05-11T11:56:15.079Z,2.00
2023-05-11T11:58:44.575Z,1.60
2023-05-11T12:01:21.944Z,2.03
2023-05-11T12:04:18.576Z,1.75
2023-05-11T12:06:55.339Z,1.90
2023-05-11T12:09:23.476Z,1.52
2023-05-11T12:11:51.172Z,2.45
2023-05-11T12:14:19.341Z,2.15
2023-05-11T12:17:05.464Z,1.77
2023-05-11T12:19:32.531Z,2.25
2023-05-11T12:22:00.256Z,2.60
2023-05-11T12:24:27.437Z,1.70
2023-05-11T12:26:57.684Z,2.22
2023-05-11T12:29:25.271Z,2.70
2023-05-11T12:31:52.922Z,2.13
2023-05-11T12:34:25.030Z,2.20
2023-05-11T12:36:53.776Z,1.95
2023-05-11T12:39:24.841Z,1.60
2023-05-11T12:41:54.808Z,2.25
2023-05-11T12:44:27.112Z,1.90
2023-05-11T12:46:54.793Z,1.58
2023-05-11T12:49:27.209Z,1.70
2023-05-11T12:52:09.228Z,2.17
2023-05-11T12:55:00.136Z,2.03
2023-05-11T12:57:30.206Z,1.92
2023-05-11T13:00:14.808Z,2.00
2023-05-11T13:02:57.997Z,1.75
2023-05-11T13:05:27.765Z,1.95
2023-05-11T13:08:05.311Z,2.00
2023-05-11T13:10:32.588Z,1.90
2023-05-11T13:12:59.717Z,1.50
2023-05-11T13:15:28.654Z,1.70
2023-05-11T13:17:59.785Z,1.98
2023-05-11T13:20:32.129Z,1.52
2023-05-11T13:23:11.505Z,1.45
2023-05-11T13:25:48.839Z,1.98
2023-05-11T13:28:17.824Z,1.77
2023-05-11T13:30:46.601Z,1.90
2023-05-11T13:33:13.963Z,1.80
2023-05-11T13:35:42.188Z,2.00
2023-05-11T13:38:13.160Z,1.70
2023-05-11T13:40:40.464Z,1.63
2023-05-11T13:43:07.741Z,1.65
2023-05-11T13:45:36.500Z,1.50
2023-05-11T13:48:03.856Z,1.67
2023-05-11T13:50:32.143Z,2.00
2023-05-11T13:52:59.439Z,1.60
2023-05-11T13:55:26.794Z,1.90
2023-05-11T13:57:53.903Z,1.90
2023-05-11T14:00:22.254Z,2.20
2023-05-11T14:02:50.727Z,2.28
2023-05-11T14:05:18.277Z,1.73
2023-05-11T14:07:48.413Z,1.50
2023-05-11T14:10:17.809Z,1.75
2023-05-11T14:12:46.099Z,1.55
2023-05-11T14:15:13.633Z,1.90
2023-05-11T14:17:42.931Z,1.80
2023-05-11T14:20:12.366Z,1.80
2023-05-11T14:22:43.010Z,1.85
2023-05-11T14:25:10.926Z,1.85
2023-05-11T14:27:38.195Z,2.13
2023-05-11T14:30:07.225Z,1.92
2023-05-11T14:32:34.368Z,1.75
2023-05-11T14:35:01.464Z,1.80
2023-05-11T14:37:28.751Z,1.45
2023-05-11T14:39:56.117Z,1.50
2023-05-11T14:42:23.488Z,2.55
2023-05-11T14:44:50.490Z,1.80
2023-05-11T14:47:17.662Z,1.80
2023-05-11T14:49:44.708Z,2.13
2023-05-11T14:52:11.804Z,1.88
2023-05-11T14:54:38.875Z,1.75
2023-05-11T14:57:06.327Z,1.70
2023-05-11T14:59:33.501Z,2.13
2023-05-11T15:02:00.750Z,5.85
2023-05-11T15:04:27.849Z,1.90
2023-05-11T15:06:55.466Z,2.30
2023-05-11T15:09:23.992Z,4.13
2023-05-11T15:11:51.049Z,4.22
2023-05-11T15:14:18.219Z,2.65
2023-05-11T15:16:46.004Z,1.50
2023-05-11T15:19:13.716Z,3.08
2023-05-11T15:21:40.823Z,1.70
2023-05-11T15:24:10.692Z,1.65
2023-05-11T15:26:38.481Z,1.98
2023-05-11T15:29:05.683Z,2.00
2023-05-11T15:31:33.271Z,1.60
2023-05-11T15:34:01.188Z,1.88
2023-05-11T15:36:29.824Z,1.70
2023-05-11T15:38:57.457Z,1.90
2023-05-11T15:41:24.590Z,2.15
2023-05-11T15:43:52.796Z,1.58
2023-05-11T15:46:19.914Z,1.90
2023-05-11T15:48:47.020Z,1.48
2023-05-11T15:51:14.212Z,1.23
2023-05-11T15:53:41.387Z,1.80
2023-05-11T15:56:09.859Z,1.58
2023-05-11T15:58:37.361Z,1.67
2023-05-11T16:01:04.472Z,1.73
2023-05-11T16:03:32.510Z,1.52
2023-05-11T16:06:01.567Z,1.48
2023-05-11T16:08:28.858Z,1.85
2023-05-11T16:10:56.011Z,1.55
2023-05-11T16:13:23.441Z,1.55
2023-05-11T16:15:51.681Z,1.80
2023-05-11T16:18:20.105Z,1.67
2023-05-11T16:20:47.308Z,1.63
2023-05-11T16:23:14.339Z,1.65
2023-05-11T16:25:41.572Z,1.70
2023-05-11T16:28:08.874Z,1.52
2023-05-11T16:30:36.936Z,1.67
2023-05-11T16:33:04.431Z,2.03
2023-05-11T16:35:31.894Z,1.63
2023-05-11T16:38:00.048Z,1.40
2023-05-11T16:40:27.217Z,2.50
2023-05-11T16:42:54.424Z,2.00
2023-05-11T16:45:21.704Z,1.85
2023-05-11T16:47:49.022Z,1.20
2023-05-11T16:50:18.525Z,1.42
2023-05-11T16:52:46.524Z,1.95
2023-05-11T16:55:16.496Z,1.48
2023-05-11T16:57:45.020Z,1.30
2023-05-11T17:00:14.376Z,1.63
2023-05-11T17:02:42.796Z,2.00
2023-05-11T17:05:14.970Z,2.20
2023-05-11T17:07:45.335Z,1.45
2023-05-11T17:10:13.853Z,1.80
2023-05-11T17:12:41.900Z,1.67
2023-05-11T17:15:10.339Z,1.55
2023-05-11T17:17:38.708Z,1.70
2023-05-11T17:20:08.324Z,2.40
2023-05-11T17:22:36.547Z,1.73
2023-05-11T17:25:06.040Z,2.05
2023-05-11T17:27:37.146Z,1.50
2023-05-11T17:30:06.429Z,1.70
2023-05-11T17:32:35.408Z,1.60
2023-05-11T17:35:04.854Z,2.33
2023-05-11T17:37:33.062Z,1.70
2023-05-11T17:40:01.869Z,1.70
2023-05-11T17:42:31.485Z,1.85
2023-05-11T17:44:59.483Z,2.35
2023-05-11T17:47:27.889Z,2.30
2023-05-11T17:49:56.429Z,2.25
2023-05-11T17:52:26.469Z,1.90
2023-05-11T17:54:54.939Z,2.28
2023-05-11T17:57:24.311Z,2.13
2023-05-11T17:59:52.703Z,2.35
2023-05-11T18:02:20.811Z,1.75
2023-05-11T18:04:48.889Z,1.88
2023-05-11T18:07:18.126Z,1.40
2023-05-11T18:09:46.342Z,1.60
2023-05-11T18:12:16.932Z,1.60
2023-05-11T18:14:44.955Z,2.03
2023-05-11T18:17:13.025Z,1.60
2023-05-11T18:19:41.192Z,2.35
2023-05-11T18:22:09.566Z,2.92
2023-05-11T18:24:37.647Z,2.50
2023-05-11T18:27:06.224Z,3.22
2023-05-11T18:29:34.823Z,3.15
2023-05-11T18:32:03.232Z,3.17
2023-05-11T18:34:31.382Z,2.60
2023-05-11T18:36:59.529Z,3.05
2023-05-11T18:39:27.837Z,3.40
2023-05-11T18:41:56.058Z,2.95
2023-05-11T18:44:24.221Z,3.42
2023-05-11T18:46:53.467Z,3.63
2023-05-11T18:49:21.948Z,3.05
2023-05-11T18:51:50.523Z,3.30
2023-05-11T18:54:18.579Z,2.88
2023-05-11T18:56:46.931Z,3.92
2023-05-11T18:59:15.104Z,3.42
2023-05-11T19:01:47.882Z,3.63
2023-05-11T19:04:20.258Z,4.15
2023-05-11T19:06:48.603Z,3.78
2023-05-11T19:09:16.709Z,3.70
2023-05-11T19:11:44.939Z,3.47
2023-05-11T19:14:15.159Z,3.35
2023-05-11T19:16:43.448Z,3.20
2023-05-11T19:19:13.241Z,3.47
2023-05-11T19:21:44.221Z,3.17
2023-05-11T19:24:12.884Z,3.15
2023-05-11T19:26:43.888Z,3.35
2023-05-11T19:29:18.198Z,3.92
2023-05-11T19:31:46.637Z,3.28
2023-05-11T19:34:14.748Z,3.20
2023-05-11T19:36:42.919Z,3.45
2023-05-11T19:39:11.019Z,3.35
2023-05-11T19:41:40.140Z,3.10
2023-05-11T19:44:08.247Z,3.20
2023-05-11T19:46:37.391Z,3.30
2023-05-11T19:49:05.485Z,3.70
2023-05-11T19:51:33.553Z,3.53
2023-05-11T19:54:01.611Z,3.47
2023-05-11T19:56:29.667Z,4.15
2023-05-11T19:58:57.681Z,3.63
2023-05-11T20:01:25.997Z,3.40
2023-05-11T20:03:54.315Z,3.35
2023-05-11T20:06:22.456Z,3.92
2023-05-11T20:08:52.094Z,4.07
2023-05-11T20:11:20.345Z,3.42
2023-05-11T20:13:48.448Z,3.95
2023-05-11T20:16:16.651Z,3.50
2023-05-11T20:18:44.988Z,3.75
2023-05-11T20:21:13.409Z,4.13
2023-05-11T20:23:41.979Z,3.78
2023-05-11T20:26:09.961Z,3.70
2023-05-11T20:28:39.926Z,3.70
2023-05-11T20:31:10.113Z,3.60
2023-05-11T20:36:10.076Z,3.47
2023-05-11T20:38:38.059Z,3.80
2023-05-11T20:41:06.080Z,3.47
2023-05-11T20:43:35.096Z,3.45
2023-05-11T20:46:06.197Z,3.72
2023-05-11T20:48:40.562Z,3.80
2023-05-11T20:51:09.446Z,3.60
2023-05-11T20:53:36.699Z,3.50
2023-05-11T20:56:03.991Z,3.25
2023-05-11T20:58:31.798Z,3.60
2023-05-11T21:00:59.078Z,3.60
2023-05-11T21:03:27.723Z,3.30
2023-05-11T21:05:56.249Z,3.97
2023-05-11T21:08:23.428Z,3.92
2023-05-11T21:10:50.612Z,3.67
2023-05-11T21:13:17.694Z,3.90
2023-05-11T21:15:44.845Z,3.65
2023-05-11T21:18:11.935Z,3.95
2023-05-11T21:20:39.241Z,3.42
2023-05-11T21:23:06.312Z,3.70
2023-05-11T21:25:33.337Z,3.58
2023-05-11T21:28:04.864Z,4.15
2023-05-11T21:30:31.961Z,3.83
2023-05-11T21:32:58.984Z,3.97
2023-05-11T21:35:26.357Z,3.65
2023-05-11T21:37:54.134Z,3.65
2023-05-11T21:40:21.412Z,3.80
2023-05-11T21:42:48.729Z,3.88
2023-05-11T21:45:15.947Z,3.22
2023-05-11T21:47:43.040Z,3.67
2023-05-11T21:50:11.257Z,3.90
2023-05-11T21:52:38.485Z,4.07
2023-05-11T21:55:06.190Z,3.83
2023-05-11T21:57:33.295Z,4.20
2023-05-11T22:00:00.378Z,4.10
2023-05-11T22:02:28.111Z,4.25
2023-05-11T22:04:55.354Z,3.80
2023-05-11T22:07:23.380Z,4.53
2023-05-11T22:09:50.824Z,3.92
2023-05-11T22:12:18.115Z,4.28
2023-05-11T22:14:45.758Z,4.43
2023-05-11T22:17:12.809Z,3.50
2023-05-11T22:19:40.158Z,3.83
2023-05-11T22:22:07.237Z,3.85
2023-05-11T22:24:34.318Z,3.90
2023-05-11T22:27:01.963Z,3.80
2023-05-11T22:29:29.009Z,4.00
2023-05-11T22:31:56.116Z,3.92
2023-05-11T22:34:23.226Z,3.47
2023-05-11T22:36:50.276Z,3.20
2023-05-11T22:39:17.280Z,3.50
2023-05-11T22:41:44.576Z,3.55
2023-05-11T22:44:11.662Z,3.00
2023-05-11T22:46:38.664Z,3.35
2023-05-11T22:49:05.768Z,3.45
2023-05-11T22:51:32.839Z,3.03
2023-05-11T22:53:59.880Z,3.83
2023-05-11T22:56:27.142Z,4.05
2023-05-11T22:58:55.964Z,3.60
2023-05-11T23:01:23.083Z,3.55
2023-05-11T23:03:50.248Z,3.38
2023-05-11T23:06:17.446Z,3.58
2023-05-11T23:08:44.668Z,3.70
2023-05-11T23:11:12.052Z,3.63
2023-05-11T23:13:41.510Z,3.70
2023-05-11T23:16:10.087Z,3.58
2023-05-11T23:18:37.870Z,4.20
2023-05-11T23:21:05.511Z,3.30
2023-05-11T23:23:32.821Z,3.65
2023-05-11T23:25:59.835Z,3.20
2023-05-11T23:28:26.844Z,3.92
2023-05-11T23:30:53.861Z,3.63
2023-05-11T23:33:21.070Z,4.20
2023-05-11T23:35:48.589Z,3.92
2023-05-11T23:38:15.697Z,3.95
2023-05-11T23:40:43.151Z,4.20
2023-05-11T23:43:10.148Z,3.90
2023-05-11T23:45:37.614Z,3.95
2023-05-11T23:48:05.413Z,3.97
2023-05-11T23:50:32.525Z,4.07
2023-05-11T23:52:59.594Z,4.55
2023-05-11T23:55:26.626Z,4.50
2023-05-11T23:57:53.747Z,3.97
